createdAt,value
2023-02-23T14:38:01.556Z,24.08
2023-02-23T14:42:01.469Z,24.22
2023-02-23T14:46:01.540Z,24.87
2023-02-23T14:50:01.388Z,24.89
2023-02-23T14:54:01.345Z,24.79
2023-02-23T14:58:01.313Z,24.72
2023-02-23T15:02:01.349Z,24.62
2023-02-23T15:06:01.497Z,24.60
2023-02-23T15:10:01.502Z,24.52
2023-02-23T15:14:01.757Z,24.49
2023-02-23T15:18:01.757Z,24.44
2023-02-23T15:22:01.474Z,24.39
2023-02-23T15:26:02.207Z,24.38
2023-02-23T15:30:01.452Z,24.35
2023-02-23T15:34:01.471Z,24.32
2023-02-23T15:38:13.599Z,24.30
2023-02-23T15:42:02.441Z,24.26
2023-02-23T15:46:01.454Z,24.25
2023-02-23T15:50:01.348Z,24.26
2023-02-23T15:54:01.304Z,24.25
2023-02-23T15:58:01.258Z,24.19
2023-02-23T16:02:01.220Z,24.16
2023-02-23T16:06:01.197Z,24.16
2023-02-23T16:10:01.175Z,24.15
2023-02-23T16:14:01.146Z,24.15
2023-02-23T16:18:01.129Z,24.15
2023-02-23T16:22:01.100Z,24.15
2023-02-23T16:26:01.130Z,24.13
2023-02-23T16:30:01.201Z,24.15
2023-02-23T16:34:01.199Z,24.11
2023-02-23T16:38:01.280Z,24.09
2023-02-23T16:42:01.351Z,24.08
2023-02-23T16:46:01.437Z,24.03
2023-02-23T16:50:13.687Z,24.03
2023-02-23T16:54:02.393Z,24.02
2023-02-23T16:58:01.359Z,24.01
2023-02-23T17:02:01.318Z,24.01
2023-02-23T17:06:01.269Z,24.03
2023-02-23T17:10:01.303Z,24.02
2023-02-23T17:14:01.406Z,24.01
2023-02-23T17:18:01.517Z,24.01
2023-02-23T17:22:01.608Z,23.99
2023-02-23T17:26:01.698Z,24.02
2023-02-23T17:30:01.820Z,23.99
2023-02-23T17:34:01.903Z,23.96
2023-02-23T17:38:02.002Z,23.96
2023-02-23T17:42:02.130Z,23.98
2023-02-23T17:46:02.301Z,23.93
2023-02-23T17:50:02.382Z,23.90
2023-02-23T17:54:02.525Z,23.89
2023-02-23T17:58:02.638Z,23.90
2023-02-23T18:02:02.797Z,23.89
2023-02-23T18:06:02.875Z,23.88
2023-02-23T18:10:03.144Z,23.83
2023-02-23T18:14:03.150Z,23.88
2023-02-23T18:18:03.368Z,23.85
2023-02-23T18:22:03.495Z,23.85
2023-02-23T18:26:03.548Z,23.86
2023-02-23T18:30:03.678Z,23.83
2023-02-23T18:34:03.834Z,23.83
2023-02-23T18:38:03.987Z,23.80
2023-02-23T18:42:04.597Z,23.79
2023-02-23T18:46:04.201Z,23.82
2023-02-23T18:50:04.352Z,23.80
2023-02-23T18:54:04.466Z,23.80
2023-02-23T18:58:04.617Z,23.79
2023-02-23T19:02:04.782Z,23.78
2023-02-23T19:06:04.898Z,23.76
2023-02-23T19:10:05.055Z,23.78
2023-02-23T19:14:05.212Z,23.78
2023-02-23T19:18:05.383Z,23.75
2023-02-23T19:22:05.592Z,23.75
2023-02-23T19:26:05.741Z,23.75
2023-02-23T19:30:05.941Z,23.72
2023-02-23T19:34:06.105Z,23.73
2023-02-23T19:38:06.248Z,23.72
2023-02-23T19:42:06.411Z,23.70
2023-02-23T19:46:06.681Z,23.69
2023-02-23T19:50:06.791Z,23.69
2023-02-23T19:54:06.967Z,23.68
2023-02-23T19:58:07.205Z,23.66
2023-02-23T20:02:07.420Z,23.68
2023-02-23T20:06:07.582Z,23.65
2023-02-23T20:10:07.797Z,23.66
2023-02-23T20:14:08.063Z,23.66
2023-02-23T20:18:08.222Z,23.64
2023-02-23T20:22:08.409Z,23.65
2023-02-23T20:26:08.589Z,23.65
2023-02-23T20:30:08.835Z,23.62
2023-02-23T20:34:09.030Z,23.64
2023-02-23T20:38:09.278Z,23.62
2023-02-23T20:42:09.464Z,23.61
2023-02-23T20:46:09.761Z,23.62
2023-02-23T20:50:09.895Z,23.61
2023-02-23T20:54:10.092Z,23.58
2023-02-23T20:58:10.310Z,23.56
2023-02-23T21:02:10.295Z,23.59
2023-02-23T21:06:10.256Z,23.56
2023-02-23T21:10:10.199Z,23.56
2023-02-23T21:14:10.147Z,23.55
2023-02-23T21:18:10.145Z,23.54
2023-02-23T21:22:10.109Z,23.55
2023-02-23T21:26:10.050Z,23.54
2023-02-23T21:30:11.033Z,23.54
2023-02-23T21:34:10.003Z,23.52
2023-02-23T21:38:10.045Z,23.51
2023-02-23T21:42:10.005Z,23.51
2023-02-23T21:46:10.045Z,23.49
2023-02-23T21:50:09.926Z,23.49
2023-02-23T21:54:09.871Z,23.51
2023-02-23T21:58:09.883Z,23.46
2023-02-23T22:02:09.890Z,23.49
2023-02-23T22:06:09.766Z,23.48
2023-02-23T22:10:09.758Z,23.46
2023-02-23T22:14:09.675Z,23.45
2023-02-23T22:18:09.866Z,23.46
2023-02-23T22:22:09.820Z,23.46
2023-02-23T22:26:09.790Z,23.44
2023-02-23T22:30:09.737Z,23.42
2023-02-23T22:34:09.716Z,23.44
2023-02-23T22:38:09.658Z,23.42
2023-02-23T22:42:09.624Z,23.41
2023-02-23T22:46:09.572Z,23.40
2023-02-23T22:50:09.552Z,23.42
2023-02-23T22:54:09.532Z,23.38
2023-02-23T22:58:09.581Z,23.40
2023-02-23T23:02:09.545Z,23.41
2023-02-23T23:06:09.516Z,23.37
2023-02-23T23:10:09.602Z,23.37
2023-02-23T23:14:09.439Z,23.38
2023-02-23T23:18:09.396Z,23.38
2023-02-23T23:22:09.377Z,23.33
2023-02-23T23:26:09.330Z,23.35
2023-02-23T23:30:09.317Z,23.32
2023-02-23T23:34:09.417Z,23.29
2023-02-23T23:38:09.223Z,23.32
2023-02-23T23:42:09.167Z,23.29
2023-02-23T23:46:09.188Z,23.31
2023-02-23T23:50:09.093Z,23.32
2023-02-23T23:54:09.154Z,23.31
2023-02-23T23:58:09.242Z,23.31
